createdAt,value
2023-04-16T00:01:25.745Z,9.93
2023-04-16T00:03:52.489Z,7.47
2023-04-16T00:06:19.199Z,11.10
2023-04-16T00:08:45.755Z,10.20
2023-04-16T00:11:12.321Z,7.00
2023-04-16T00:13:38.838Z,11.73
2023-04-16T00:16:05.602Z,9.25
2023-04-16T00:18:32.112Z,12.68
2023-04-16T00:20:59.539Z,9.32
2023-04-16T00:23:26.023Z,10.10
2023-04-16T00:25:53.743Z,7.28
2023-04-16T00:28:20.517Z,8.65
2023-04-16T00:30:47.113Z,7.45
2023-04-16T00:33:13.599Z,6.32
2023-04-16T00:35:40.237Z,7.10
2023-04-16T00:38:06.754Z,7.10
2023-04-16T00:40:33.245Z,7.93
2023-04-16T00:42:59.877Z,7.53
2023-04-16T00:45:26.357Z,11.23
2023-04-16T00:47:52.889Z,9.13
2023-04-16T00:50:19.572Z,7.63
2023-04-16T00:52:47.555Z,8.23
2023-04-16T00:55:15.120Z,7.13
2023-04-16T00:57:41.631Z,8.55
2023-04-16T01:00:08.671Z,10.02
2023-04-16T01:02:35.264Z,9.98
2023-04-16T01:05:02.291Z,8.30
2023-04-16T01:07:28.992Z,8.45
2023-04-16T01:09:56.277Z,7.22
2023-04-16T01:12:22.949Z,8.98
2023-04-16T01:14:49.380Z,8.77
2023-04-16T01:17:15.839Z,7.53
2023-04-16T01:19:43.055Z,9.40
2023-04-16T01:22:09.558Z,8.07
2023-04-16T01:24:36.505Z,8.13
2023-04-16T01:27:03.113Z,8.20
2023-04-16T01:29:29.616Z,7.05
2023-04-16T01:31:56.114Z,8.25
2023-04-16T01:34:23.987Z,7.15
2023-04-16T01:36:51.080Z,7.20
2023-04-16T01:39:19.340Z,9.18
2023-04-16T01:41:45.871Z,6.97
2023-04-16T01:44:12.360Z,6.15
2023-04-16T01:46:38.894Z,6.43
2023-04-16T01:49:06.073Z,9.25
2023-04-16T01:51:32.756Z,6.95
2023-04-16T01:53:59.250Z,7.05
2023-04-16T01:56:26.310Z,6.05
2023-04-16T01:58:53.126Z,5.05
2023-04-16T02:01:19.661Z,7.43
2023-04-16T02:03:46.441Z,7.95
2023-04-16T02:06:13.032Z,4.97
2023-04-16T02:08:39.559Z,6.18
2023-04-16T02:11:06.035Z,4.50
2023-04-16T02:13:32.521Z,4.57
2023-04-16T02:15:59.220Z,4.95
2023-04-16T02:18:25.800Z,5.20
2023-04-16T02:20:52.269Z,4.07
2023-04-16T02:23:18.764Z,3.47
2023-04-16T02:25:46.407Z,4.13
2023-04-16T02:28:14.664Z,4.43
2023-04-16T02:30:41.147Z,3.97
2023-04-16T02:33:08.515Z,3.50
2023-04-16T02:35:35.329Z,3.80
2023-04-16T02:38:02.024Z,4.10
2023-04-16T02:40:29.005Z,3.40
2023-04-16T02:42:55.720Z,3.38
2023-04-16T02:45:22.303Z,3.33
2023-04-16T02:47:49.245Z,3.05
2023-04-16T02:50:16.086Z,3.30
2023-04-16T02:52:42.637Z,6.03
2023-04-16T02:55:10.188Z,2.63
2023-04-16T02:57:36.701Z,3.30
2023-04-16T03:00:04.995Z,3.10
2023-04-16T03:02:31.914Z,3.00
2023-04-16T03:04:58.453Z,3.20
2023-04-16T03:07:24.982Z,3.08
2023-04-16T03:09:51.800Z,3.33
2023-04-16T03:12:18.244Z,3.63
2023-04-16T03:14:44.720Z,4.20
2023-04-16T03:17:11.611Z,3.20
2023-04-16T03:19:38.063Z,3.92
2023-04-16T03:22:04.671Z,3.67
2023-04-16T03:24:31.239Z,3.90
2023-04-16T03:26:58.382Z,3.63
2023-04-16T03:29:26.751Z,4.45
2023-04-16T03:31:53.364Z,3.55
2023-04-16T03:34:19.914Z,3.60
2023-04-16T03:36:46.406Z,4.03
2023-04-16T03:39:13.009Z,3.60
2023-04-16T03:41:39.489Z,3.20
2023-04-16T03:44:06.193Z,3.85
2023-04-16T03:46:32.807Z,3.47
2023-04-16T03:48:59.304Z,3.92
2023-04-16T03:51:26.423Z,3.55
2023-04-16T03:53:53.140Z,4.47
2023-04-16T03:56:19.665Z,3.30
2023-04-16T03:58:46.148Z,3.58
2023-04-16T04:01:12.689Z,3.92
2023-04-16T04:03:39.399Z,4.15
2023-04-16T04:06:09.307Z,3.67
2023-04-16T04:08:35.819Z,3.67
2023-04-16T04:11:02.283Z,3.60
2023-04-16T04:13:28.776Z,3.55
2023-04-16T04:15:55.344Z,3.13
2023-04-16T04:18:21.909Z,4.05
2023-04-16T04:20:48.393Z,4.20
2023-04-16T04:23:14.914Z,4.38
2023-04-16T04:25:41.421Z,3.72
2023-04-16T04:28:07.893Z,3.53
2023-04-16T04:30:35.827Z,3.75
2023-04-16T04:33:02.376Z,7.25
2023-04-16T04:35:28.917Z,3.78
2023-04-16T04:37:55.735Z,3.85
2023-04-16T04:40:22.264Z,4.15
2023-04-16T04:42:48.863Z,3.60
2023-04-16T04:45:15.914Z,4.30
2023-04-16T04:47:42.397Z,3.92
2023-04-16T04:50:09.390Z,4.07
2023-04-16T04:52:35.902Z,3.55
2023-04-16T04:55:02.347Z,3.05
2023-04-16T04:57:28.808Z,3.05
2023-04-16T04:59:55.481Z,3.15
2023-04-16T05:02:22.058Z,3.40
2023-04-16T05:04:48.618Z,4.47
2023-04-16T05:07:15.509Z,2.90
2023-04-16T05:09:41.968Z,4.25
2023-04-16T05:12:08.530Z,2.47
2023-04-16T05:14:36.172Z,2.28
2023-04-16T05:17:02.881Z,2.22
2023-04-16T05:19:29.457Z,2.33
2023-04-16T05:21:56.209Z,2.03
2023-04-16T05:24:22.678Z,2.10
2023-04-16T05:26:49.180Z,2.05
2023-04-16T05:29:15.928Z,1.98
2023-04-16T05:31:42.412Z,2.33
2023-04-16T05:34:08.868Z,2.50
2023-04-16T05:36:35.459Z,2.03
2023-04-16T05:39:01.966Z,2.35
2023-04-16T05:41:28.405Z,2.10
2023-04-16T05:43:54.931Z,2.15
2023-04-16T05:46:21.451Z,2.28
2023-04-16T05:48:47.953Z,2.20
2023-04-16T05:51:14.463Z,2.42
2023-04-16T05:53:40.972Z,2.33
2023-04-16T05:56:07.844Z,2.25
2023-04-16T05:58:34.384Z,4.63
2023-04-16T06:01:01.204Z,1.58
2023-04-16T06:03:28.012Z,1.52
2023-04-16T06:05:54.672Z,1.83
2023-04-16T06:08:21.269Z,4.10
2023-04-16T06:10:47.747Z,1.90
2023-04-16T06:13:14.502Z,1.92
2023-04-16T06:15:40.979Z,2.20
2023-04-16T06:18:07.541Z,4.53
2023-04-16T06:20:34.110Z,2.00
2023-04-16T06:23:00.745Z,2.40
2023-04-16T06:25:27.256Z,1.83
2023-04-16T06:27:53.798Z,1.58
2023-04-16T06:30:20.536Z,1.60
2023-04-16T06:32:47.126Z,1.90
2023-04-16T06:35:13.848Z,1.90
2023-04-16T06:37:40.537Z,1.25
2023-04-16T06:40:07.569Z,2.00
2023-04-16T06:42:34.085Z,2.08
2023-04-16T06:45:00.590Z,2.15
2023-04-16T06:47:27.362Z,1.30
2023-04-16T06:49:53.898Z,1.65
2023-04-16T06:52:20.437Z,1.60
2023-04-16T06:54:47.979Z,1.38
2023-04-16T06:57:14.545Z,1.33
2023-04-16T06:59:41.004Z,1.40
2023-04-16T07:02:09.186Z,1.42
2023-04-16T07:04:35.893Z,1.30
2023-04-16T07:07:02.362Z,1.17
2023-04-16T07:09:28.847Z,1.40
2023-04-16T07:11:55.675Z,3.60
2023-04-16T07:14:22.141Z,4.03
2023-04-16T07:16:48.682Z,1.17
2023-04-16T07:19:15.302Z,1.30
2023-04-16T07:21:44.499Z,0.85
2023-04-16T07:24:14.105Z,1.20
2023-04-16T07:26:40.661Z,1.00
2023-04-16T07:29:07.224Z,0.95
2023-04-16T07:31:33.836Z,1.02
2023-04-16T07:34:00.659Z,3.28
2023-04-16T07:36:28.331Z,1.23
2023-04-16T07:38:54.818Z,1.50
2023-04-16T07:41:21.357Z,1.20
2023-04-16T07:43:47.838Z,1.20
2023-04-16T07:46:14.388Z,4.70
2023-04-16T07:48:41.266Z,1.00
2023-04-16T07:51:07.766Z,1.00
2023-04-16T07:53:34.234Z,0.90
2023-04-16T07:56:00.779Z,0.95
2023-04-16T07:58:27.272Z,0.80
2023-04-16T08:00:53.752Z,0.80
2023-04-16T08:03:20.376Z,0.80
2023-04-16T08:05:46.991Z,0.82
2023-04-16T08:08:13.469Z,0.75
2023-04-16T08:10:39.983Z,1.30
2023-04-16T08:13:06.514Z,1.88
2023-04-16T08:15:33.029Z,2.13
2023-04-16T08:17:59.852Z,2.13
2023-04-16T08:20:26.460Z,1.73
2023-04-16T08:22:53.795Z,1.80
2023-04-16T08:25:21.086Z,2.70
2023-04-16T08:27:47.565Z,2.40
2023-04-16T08:30:15.116Z,3.38
2023-04-16T08:32:41.674Z,1.70
2023-04-16T08:35:08.672Z,1.35
2023-04-16T08:37:35.362Z,1.20
2023-04-16T08:40:02.510Z,2.25
2023-04-16T08:42:40.604Z,3.13
2023-04-16T08:45:08.915Z,1.40
2023-04-16T08:47:36.845Z,1.33
2023-04-16T08:50:04.761Z,1.13
2023-04-16T08:52:31.366Z,1.40
2023-04-16T08:55:05.323Z,1.00
2023-04-16T08:57:39.853Z,1.00
2023-04-16T09:00:07.817Z,3.25
2023-04-16T09:02:34.785Z,2.58
2023-04-16T09:05:01.549Z,1.63
2023-04-16T09:07:29.034Z,2.05
2023-04-16T09:09:55.674Z,1.30
2023-04-16T09:12:24.054Z,1.13
2023-04-16T09:14:50.996Z,1.00
2023-04-16T09:17:18.422Z,0.90
2023-04-16T09:19:47.997Z,1.10
2023-04-16T09:22:14.635Z,1.23
2023-04-16T09:24:41.919Z,1.23
2023-04-16T09:27:08.779Z,2.05
2023-04-16T09:29:36.394Z,5.13
2023-04-16T09:32:04.370Z,1.55
2023-04-16T09:34:33.323Z,1.23
2023-04-16T09:37:16.720Z,1.90
2023-04-16T09:39:54.206Z,1.45
2023-04-16T09:42:36.905Z,2.45
2023-04-16T09:45:05.692Z,1.70
2023-04-16T09:47:43.386Z,1.17
2023-04-16T09:50:12.682Z,1.63
2023-04-16T09:52:39.725Z,1.70
2023-04-16T09:55:06.420Z,8.52
2023-04-16T09:57:32.999Z,1.90
2023-04-16T10:00:08.886Z,1.35
2023-04-16T10:02:35.983Z,2.08
2023-04-16T10:05:03.177Z,1.67
2023-04-16T10:07:29.880Z,1.27
2023-04-16T10:09:56.401Z,1.17
2023-04-16T10:12:23.042Z,1.67
2023-04-16T10:14:50.411Z,1.00
2023-04-16T10:17:17.252Z,1.00
2023-04-16T10:19:43.715Z,1.08
2023-04-16T10:22:11.004Z,1.10
2023-04-16T10:24:37.618Z,5.13
2023-04-16T10:27:04.102Z,0.90
2023-04-16T10:29:31.404Z,1.05
2023-04-16T10:31:58.025Z,1.38
2023-04-16T10:34:24.683Z,2.47
2023-04-16T10:36:52.875Z,1.75
2023-04-16T10:39:21.371Z,1.00
2023-04-16T10:41:47.943Z,2.30
2023-04-16T10:44:16.543Z,1.15
2023-04-16T10:46:43.861Z,1.02
2023-04-16T10:49:20.387Z,1.08
2023-04-16T10:52:00.221Z,0.88
2023-04-16T10:54:27.738Z,1.10
2023-04-16T10:56:56.322Z,1.00
2023-04-16T10:59:23.710Z,0.90
2023-04-16T11:01:52.180Z,1.92
2023-04-16T11:04:22.205Z,1.35
2023-04-16T11:07:07.333Z,1.30
2023-04-16T11:10:02.165Z,1.20
2023-04-16T11:12:35.855Z,1.10
2023-04-16T11:15:03.951Z,1.60
2023-04-16T11:17:47.270Z,1.20
2023-04-16T11:20:19.770Z,1.10
2023-04-16T11:22:47.141Z,1.08
2023-04-16T11:25:13.636Z,0.98
2023-04-16T11:27:40.997Z,1.20
2023-04-16T11:30:11.271Z,0.70
2023-04-16T11:32:38.436Z,1.27
2023-04-16T11:35:15.871Z,1.15
2023-04-16T11:37:42.414Z,1.10
2023-04-16T11:40:12.417Z,1.70
2023-04-16T11:42:43.349Z,1.00
2023-04-16T11:45:11.027Z,1.02
2023-04-16T11:47:47.313Z,0.98
2023-04-16T11:50:17.806Z,0.90
2023-04-16T11:52:44.294Z,2.35
2023-04-16T11:55:10.928Z,0.85
2023-04-16T11:57:38.230Z,0.90
2023-04-16T12:00:11.348Z,4.80
2023-04-16T12:02:41.703Z,0.85
2023-04-16T12:05:26.985Z,1.25
2023-04-16T12:07:53.453Z,0.85
2023-04-16T12:10:19.923Z,1.92
2023-04-16T12:12:46.499Z,0.57
2023-04-16T12:15:12.972Z,1.10
2023-04-16T12:17:39.475Z,2.42
2023-04-16T12:20:11.039Z,1.17
2023-04-16T12:22:43.935Z,0.85
2023-04-16T12:25:17.270Z,1.35
2023-04-16T12:27:51.333Z,2.53
2023-04-16T12:30:20.697Z,0.88
2023-04-16T12:32:48.786Z,0.85
2023-04-16T12:35:32.576Z,0.75
2023-04-16T12:37:59.398Z,4.72
2023-04-16T12:40:26.037Z,0.75
2023-04-16T12:42:52.556Z,1.10
2023-04-16T12:45:19.118Z,0.90
2023-04-16T12:47:46.130Z,3.17
2023-04-16T12:50:12.995Z,1.30
2023-04-16T12:52:39.517Z,1.60
2023-04-16T12:55:06.632Z,0.93
2023-04-16T12:57:33.150Z,1.20
2023-04-16T12:59:59.642Z,0.88
2023-04-16T13:02:26.266Z,1.30
2023-04-16T13:04:53.240Z,1.70
2023-04-16T13:07:19.895Z,2.15
2023-04-16T13:09:46.457Z,2.03
2023-04-16T13:12:13.005Z,2.42
2023-04-16T13:14:39.528Z,2.75
2023-04-16T13:17:06.113Z,1.95
2023-04-16T13:19:32.654Z,1.90
2023-04-16T13:21:59.178Z,1.45
2023-04-16T13:24:25.801Z,1.40
2023-04-16T13:26:52.556Z,1.90
2023-04-16T13:29:19.749Z,1.40
2023-04-16T13:31:46.693Z,1.60
2023-04-16T13:34:13.275Z,2.05
2023-04-16T13:36:40.268Z,1.63
2023-04-16T13:39:11.239Z,3.28
2023-04-16T13:41:38.680Z,1.98
2023-04-16T13:44:05.577Z,2.35
2023-04-16T13:46:32.156Z,1.83
2023-04-16T13:48:58.713Z,1.98
2023-04-16T13:51:25.281Z,2.40
2023-04-16T13:53:51.756Z,2.10
2023-04-16T13:56:18.917Z,2.17
2023-04-16T13:58:45.384Z,2.28
2023-04-16T14:01:12.268Z,1.65
2023-04-16T14:03:40.592Z,3.40
2023-04-16T14:06:07.161Z,1.88
2023-04-16T14:08:33.714Z,3.42
2023-04-16T14:11:00.655Z,1.77
2023-04-16T14:13:27.108Z,1.95
2023-04-16T14:15:54.106Z,2.92
2023-04-16T14:18:20.734Z,1.98
2023-04-16T14:20:47.592Z,1.55
2023-04-16T14:23:14.178Z,1.83
2023-04-16T14:25:40.905Z,1.70
2023-04-16T14:28:08.775Z,1.55
2023-04-16T14:30:35.339Z,1.10
2023-04-16T14:33:01.996Z,1.40
2023-04-16T14:35:28.528Z,1.23
2023-04-16T14:37:55.000Z,1.15
2023-04-16T14:40:21.501Z,1.23
2023-04-16T14:42:48.003Z,0.90
2023-04-16T14:45:14.499Z,0.85
2023-04-16T14:47:46.202Z,3.15
2023-04-16T14:50:12.949Z,1.20
2023-04-16T14:52:39.711Z,1.10
2023-04-16T14:55:07.002Z,1.52
2023-04-16T14:57:33.514Z,1.55
2023-04-16T15:00:00.009Z,1.20
2023-04-16T15:02:26.860Z,4.00
2023-04-16T15:04:53.467Z,0.80
2023-04-16T15:07:19.967Z,1.00
2023-04-16T15:09:46.530Z,2.67
2023-04-16T15:12:13.076Z,1.00
2023-04-16T15:14:39.557Z,1.98
2023-04-16T15:17:06.456Z,1.42
2023-04-16T15:19:33.065Z,0.85
2023-04-16T15:21:59.577Z,0.88
2023-04-16T15:24:26.280Z,0.80
2023-04-16T15:26:52.817Z,0.40
2023-04-16T15:29:19.317Z,0.40
2023-04-16T15:31:45.836Z,1.65
2023-04-16T15:34:12.578Z,0.47
2023-04-16T15:36:39.268Z,0.50
2023-04-16T15:39:05.771Z,0.80
2023-04-16T15:41:32.246Z,0.60
2023-04-16T15:43:58.743Z,1.10
2023-04-16T15:46:25.290Z,0.60
2023-04-16T15:48:51.801Z,0.50
2023-04-16T15:51:18.299Z,0.88
2023-04-16T15:53:46.116Z,0.60
2023-04-16T15:56:12.607Z,0.40
2023-04-16T15:58:39.106Z,0.45
2023-04-16T16:01:05.630Z,2.17
2023-04-16T16:03:33.867Z,2.28
2023-04-16T16:06:01.617Z,0.88
2023-04-16T16:08:29.540Z,0.77
2023-04-16T16:10:56.636Z,1.10
2023-04-16T16:13:23.226Z,0.70
2023-04-16T16:15:50.963Z,0.40
2023-04-16T16:18:17.502Z,1.80
2023-04-16T16:20:44.039Z,0.70
2023-04-16T16:23:10.883Z,0.50
2023-04-16T16:25:37.436Z,0.80
2023-04-16T16:28:06.519Z,0.80
2023-04-16T16:30:33.322Z,1.55
2023-04-16T16:32:59.840Z,0.63
2023-04-16T16:35:26.347Z,0.43
2023-04-16T16:37:55.737Z,0.73
2023-04-16T16:40:22.309Z,0.57
2023-04-16T16:42:48.820Z,0.68
2023-04-16T16:45:15.686Z,3.08
2023-04-16T16:47:42.175Z,0.85
2023-04-16T16:50:11.308Z,1.05
2023-04-16T16:52:38.901Z,1.00
2023-04-16T16:55:08.560Z,0.95
2023-04-16T16:57:35.040Z,1.15
2023-04-16T17:00:01.690Z,1.15
2023-04-16T17:02:28.264Z,1.80
2023-04-16T17:04:54.912Z,1.98
2023-04-16T17:07:21.474Z,1.80
2023-04-16T17:09:47.929Z,1.10
2023-04-16T17:12:14.442Z,1.50
2023-04-16T17:14:41.240Z,3.42
2023-04-16T17:17:07.761Z,1.10
2023-04-16T17:19:34.267Z,1.95
2023-04-16T17:22:00.989Z,1.42
2023-04-16T17:24:27.457Z,0.95
2023-04-16T17:26:54.026Z,1.13
2023-04-16T17:29:25.918Z,4.28
2023-04-16T17:31:53.269Z,0.60
2023-04-16T17:34:20.984Z,3.45
2023-04-16T17:36:47.521Z,0.70
2023-04-16T17:39:14.585Z,0.75
2023-04-16T17:41:41.072Z,1.40
2023-04-16T17:44:09.338Z,1.95
2023-04-16T17:46:37.080Z,4.85
2023-04-16T17:49:03.636Z,3.47
2023-04-16T17:51:31.099Z,2.90
2023-04-16T17:53:57.596Z,2.55
2023-04-16T17:56:24.145Z,2.85
2023-04-16T17:58:50.783Z,1.10
2023-04-16T18:01:17.229Z,0.82
2023-04-16T18:03:44.423Z,0.90
2023-04-16T18:06:11.618Z,0.70
2023-04-16T18:08:38.168Z,1.67
2023-04-16T18:11:08.354Z,1.38
2023-04-16T18:13:35.417Z,2.65
2023-04-16T18:16:02.497Z,0.70
2023-04-16T18:18:29.034Z,4.10
2023-04-16T18:20:55.813Z,0.77
2023-04-16T18:23:22.328Z,1.85
2023-04-16T18:25:48.976Z,0.90
2023-04-16T18:28:15.613Z,0.82
2023-04-16T18:30:42.802Z,0.60
2023-04-16T18:33:30.600Z,0.77
2023-04-16T18:35:55.937Z,0.60
2023-04-16T18:38:22.699Z,0.80
2023-04-16T18:40:49.776Z,0.88
2023-04-16T18:43:16.489Z,2.00
2023-04-16T18:45:42.946Z,1.95
2023-04-16T18:48:09.442Z,1.20
2023-04-16T18:50:36.060Z,1.77
2023-04-16T18:53:02.680Z,2.17
2023-04-16T18:55:30.230Z,9.07
2023-04-16T18:57:56.995Z,1.63
2023-04-16T19:00:23.536Z,2.67
2023-04-16T19:02:50.276Z,2.20
2023-04-16T19:05:17.001Z,2.67
2023-04-16T19:07:43.492Z,2.22
2023-04-16T19:10:10.156Z,2.70
2023-04-16T19:12:36.951Z,4.28
2023-04-16T19:15:04.362Z,1.52
2023-04-16T19:17:30.886Z,1.50
2023-04-16T19:19:57.591Z,1.80
2023-04-16T19:22:24.123Z,1.83
2023-04-16T19:24:50.580Z,1.65
2023-04-16T19:27:17.072Z,4.30
2023-04-16T19:29:43.595Z,1.20
2023-04-16T19:32:10.235Z,1.40
2023-04-16T19:34:36.784Z,1.65
2023-04-16T19:37:03.252Z,1.52
2023-04-16T19:39:29.792Z,2.33
2023-04-16T19:41:56.379Z,2.50
2023-04-16T19:44:23.222Z,1.70
2023-04-16T19:46:49.688Z,2.38
2023-04-16T19:49:16.224Z,1.70
2023-04-16T19:51:42.677Z,2.20
2023-04-16T19:54:09.155Z,3.22
2023-04-16T19:56:35.854Z,2.95
2023-04-16T19:59:02.532Z,1.80
2023-04-16T20:01:30.776Z,2.53
2023-04-16T20:03:57.389Z,2.22
2023-04-16T20:06:24.237Z,5.38
2023-04-16T20:08:50.726Z,2.45
2023-04-16T20:11:17.680Z,3.13
2023-04-16T20:13:47.711Z,2.10
2023-04-16T20:16:14.508Z,2.10
2023-04-16T20:18:44.035Z,2.97
2023-04-16T20:21:10.866Z,5.70
2023-04-16T20:23:37.413Z,2.03
2023-04-16T20:26:04.473Z,2.25
2023-04-16T20:28:30.989Z,1.90
2023-04-16T20:30:57.515Z,1.92
2023-04-16T20:33:24.389Z,3.63
2023-04-16T20:35:52.168Z,2.50
2023-04-16T20:38:23.734Z,1.80
2023-04-16T20:40:58.179Z,1.83
2023-04-16T20:43:25.982Z,2.42
2023-04-16T20:45:52.458Z,1.70
2023-04-16T20:48:18.973Z,1.73
2023-04-16T20:50:45.529Z,4.15
2023-04-16T20:53:12.959Z,1.95
2023-04-16T20:55:39.562Z,1.92
2023-04-16T20:58:06.461Z,5.45
2023-04-16T21:00:32.998Z,4.40
2023-04-16T21:02:59.708Z,2.65
2023-04-16T21:05:26.492Z,2.10
2023-04-16T21:07:55.391Z,2.08
2023-04-16T21:10:22.396Z,3.35
2023-04-16T21:12:48.948Z,3.38
2023-04-16T21:15:15.575Z,4.75
2023-04-16T21:17:42.179Z,7.13
2023-04-16T21:20:13.412Z,3.17
2023-04-16T21:22:39.926Z,3.17
2023-04-16T21:25:07.152Z,3.85
2023-04-16T21:27:33.604Z,3.72
2023-04-16T21:30:00.067Z,3.38
2023-04-16T21:32:26.599Z,4.72
2023-04-16T21:34:53.119Z,3.05
2023-04-16T21:37:19.565Z,3.30
2023-04-16T21:39:46.176Z,2.95
2023-04-16T21:42:12.626Z,3.00
2023-04-16T21:44:39.109Z,3.22
2023-04-16T21:47:05.797Z,3.20
2023-04-16T21:49:32.360Z,3.70
2023-04-16T21:51:59.226Z,3.47
2023-04-16T21:54:25.832Z,6.57
2023-04-16T21:56:52.320Z,3.65
2023-04-16T21:59:18.790Z,2.78
2023-04-16T22:01:45.365Z,2.97
2023-04-16T22:04:12.206Z,2.42
2023-04-16T22:06:38.745Z,2.55
2023-04-16T22:09:05.331Z,3.47
2023-04-16T22:11:31.831Z,2.85
2023-04-16T22:13:58.285Z,2.40
2023-04-16T22:16:24.908Z,3.42
2023-04-16T22:18:51.496Z,6.70
2023-04-16T22:21:18.067Z,4.85
2023-04-16T22:23:45.262Z,4.03
2023-04-16T22:26:12.751Z,3.15
2023-04-16T22:28:39.200Z,4.00
2023-04-16T22:31:05.801Z,3.90
2023-04-16T22:33:32.307Z,5.53
2023-04-16T22:35:59.828Z,4.40
2023-04-16T22:38:26.336Z,4.43
2023-04-16T22:40:52.803Z,9.13
2023-04-16T22:43:19.264Z,4.78
2023-04-16T22:45:46.389Z,6.40
2023-04-16T22:48:13.044Z,4.90
2023-04-16T22:50:40.608Z,4.75
2023-04-16T22:53:07.134Z,8.23
2023-04-16T22:55:33.605Z,6.68
2023-04-16T22:58:00.351Z,5.78
2023-04-16T23:00:27.292Z,5.30
2023-04-16T23:02:53.894Z,12.63
2023-04-16T23:05:20.528Z,5.07
2023-04-16T23:07:47.028Z,6.38
2023-04-16T23:10:13.507Z,4.47
2023-04-16T23:12:40.120Z,5.25
2023-04-16T23:15:07.093Z,6.38
2023-04-16T23:17:33.832Z,6.57
2023-04-16T23:20:00.476Z,13.43
2023-04-16T23:22:26.980Z,4.63
2023-04-16T23:24:53.563Z,4.28
2023-04-16T23:27:20.084Z,6.05
2023-04-16T23:29:46.656Z,5.72
2023-04-16T23:32:13.160Z,4.63
2023-04-16T23:34:39.625Z,7.63
2023-04-16T23:37:06.637Z,7.70
2023-04-16T23:39:33.146Z,5.80
2023-04-16T23:41:59.606Z,5.05
2023-04-16T23:44:26.116Z,6.38
2023-04-16T23:46:52.630Z,11.25
2023-04-16T23:49:19.258Z,9.70
2023-04-16T23:51:45.800Z,6.97
2023-04-16T23:54:12.252Z,7.00
2023-04-16T23:56:38.740Z,4.82
2023-04-16T23:59:05.525Z,7.38
